Time;durP1;ratioP1;P1;durP2;ratioP2;P2;SDS_P1;SDS_P2;PMS_P1;PMS_P2;Temp;Humidity;BMP_temperature;BMP_pressure;BME280_temperature;BME280_humidity;BME280_pressure;Samples;Min_cycle;Max_cycle;Signal;HPM_P1;HPM_P2
2024/03/26 00:02:22;;;;;;;98.65;47.95;;;179.60;2252.80;;;;;;5033448;28;20217;-72
2024/03/26 00:04:48;;;;;;;90.65;44.63;;;179.50;2252.80;;;;;;5033913;28;20103;-72
2024/03/26 00:07:14;;;;;;;66.63;36.40;;;179.50;2252.80;;;;;;5034931;28;20455;-73
2024/03/26 00:09:40;;;;;;;56.20;32.22;;;179.60;2252.80;;;;;;5047874;28;20037;-71
2024/03/26 00:12:05;;;;;;;120.90;59.97;;;179.50;2252.80;;;;;;5034805;28;20364;-73
2024/03/26 00:14:31;;;;;;;119.72;56.17;;;179.50;2252.80;;;;;;5035475;28;20037;-74
2024/03/26 00:16:57;;;;;;;126.40;61.30;;;179.50;2252.80;;;;;;5035158;28;20022;-71
2024/03/26 00:19:23;;;;;;;63.25;34.30;;;179.50;2252.80;;;;;;5036462;28;20017;-72
2024/03/26 00:21:49;;;;;;;48.88;26.90;;;179.60;2252.80;;;;;;5033862;28;20391;-73
2024/03/26 00:24:15;;;;;;;106.97;50.85;;;179.60;2252.80;;;;;;5048822;28;20021;-71
2024/03/26 00:26:40;;;;;;;86.63;43.65;;;179.70;2252.80;;;;;;5050912;28;20051;-73
2024/03/26 00:29:06;;;;;;;123.05;56.25;;;179.60;2252.80;;;;;;5045010;28;20025;-74
2024/03/26 00:31:35;;;;;;;138.27;65.18;;;179.60;2252.80;;;;;;5043170;28;20036;-74
2024/03/26 00:34:01;;;;;;;38.00;24.38;;;179.60;2252.80;;;;;;5051436;28;20049;-73
2024/03/26 00:36:27;;;;;;;56.20;29.77;;;179.60;2252.80;;;;;;5051239;28;20027;-73
2024/03/26 00:38:54;;;;;;;49.08;26.92;;;179.50;2252.80;;;;;;5050288;28;20040;-74
2024/03/26 00:41:20;;;;;;;51.10;26.50;;;179.60;2252.80;;;;;;5040078;28;20084;-75
2024/03/26 00:43:46;;;;;;;102.97;55.90;;;179.50;2252.80;;;;;;5034989;28;20025;-74
2024/03/26 00:46:12;;;;;;;109.97;60.55;;;179.50;2252.80;;;;;;5032599;28;20030;-75
2024/03/26 00:48:37;;;;;;;112.78;60.55;;;179.40;2252.80;;;;;;5035647;28;20029;-75
2024/03/26 00:51:03;;;;;;;109.90;64.13;;;179.30;2252.80;;;;;;5033029;28;20044;-73
2024/03/26 00:53:29;;;;;;;108.72;62.33;;;179.30;2252.80;;;;;;5034561;28;20055;-74
2024/03/26 00:55:55;;;;;;;139.45;80.18;;;179.30;2252.80;;;;;;5047336;28;20061;-73
2024/03/26 00:58:21;;;;;;;147.73;79.18;;;179.20;2252.80;;;;;;5033235;28;20034;-75
2024/03/26 01:00:47;;;;;;;81.75;48.30;;;179.20;2252.80;;;;;;5037421;28;20037;-75
2024/03/26 01:03:13;;;;;;;90.70;54.38;;;179.20;2252.80;;;;;;5050323;28;20013;-75
2024/03/26 01:05:39;;;;;;;229.18;119.35;;;179.20;2252.80;;;;;;5050890;28;20044;-75
2024/03/26 01:08:05;;;;;;;132.27;78.47;;;179.20;2252.80;;;;;;5050685;28;20013;-75
2024/03/26 01:10:32;;;;;;;148.50;81.00;;;154.50;2252.80;;;;;;5050547;28;20028;-75
2024/03/26 01:12:58;;;;;;;134.85;77.80;;;154.50;2252.80;;;;;;5050460;28;20073;-74
2024/03/26 01:15:24;;;;;;;104.65;58.67;;;179.20;2252.80;;;;;;5050412;28;20384;-75
2024/03/26 01:17:49;;;;;;;123.47;73.53;;;179.20;2252.80;;;;;;5050345;28;20034;-74
2024/03/26 01:20:15;;;;;;;89.78;54.33;;;179.20;2252.80;;;;;;5049342;28;20033;-74
2024/03/26 01:22:41;;;;;;;81.10;51.85;;;179.20;2252.80;;;;;;5050678;28;20039;-74
2024/03/26 01:25:07;;;;;;;87.55;54.05;;;179.20;2252.80;;;;;;5050183;28;20364;-75
2024/03/26 01:27:34;;;;;;;84.10;46.78;;;179.20;2252.80;;;;;;5049935;28;20139;-75
2024/03/26 01:30:00;;;;;;;62.88;39.45;;;179.20;2252.80;;;;;;5050403;28;20079;-75
2024/03/26 01:32:26;;;;;;;67.93;40.70;;;179.20;2252.80;;;;;;5050121;28;20471;-75
2024/03/26 01:34:52;;;;;;;98.55;56.58;;;179.20;2252.80;;;;;;5049820;28;20389;-75
2024/03/26 01:37:18;;;;;;;72.82;48.03;;;179.20;2252.80;;;;;;5050156;28;20513;-74
2024/03/26 01:39:43;;;;;;;108.47;75.00;;;179.20;2252.80;;;;;;5049695;28;20128;-74
2024/03/26 01:42:09;;;;;;;56.88;37.47;;;179.20;2252.80;;;;;;5049793;28;20107;-75
2024/03/26 01:44:35;;;;;;;78.43;48.30;;;179.20;2252.80;;;;;;5049703;28;20021;-75
2024/03/26 01:47:01;;;;;;;86.25;58.30;;;179.20;2252.80;;;;;;5049826;28;20025;-76
2024/03/26 01:49:33;;;;;;;65.47;45.33;;;154.50;2252.80;;;;;;5049998;28;20017;-75
2024/03/26 01:52:00;;;;;;;59.53;38.55;;;154.50;2252.80;;;;;;5049874;28;20088;-75
2024/03/26 01:54:26;;;;;;;63.75;40.55;;;179.40;2252.80;;;;;;5049594;28;20398;-75
2024/03/26 01:56:54;;;;;;;155.90;90.45;;;154.50;2252.80;;;;;;5049585;28;20029;-76
2024/03/26 01:59:20;;;;;;;87.70;54.20;;;154.50;2252.80;;;;;;5049519;28;20017;-76
2024/03/26 02:01:46;;;;;;;59.55;40.10;;;154.50;2252.80;;;;;;5049610;28;20062;-75
2024/03/26 02:04:11;;;;;;;43.15;28.83;;;154.40;2252.80;;;;;;5049368;28;20029;-75
2024/03/26 02:06:37;;;;;;;61.47;38.97;;;154.40;2252.80;;;;;;5049850;28;20032;-75
2024/03/26 02:09:03;;;;;;;106.13;58.10;;;154.40;2252.80;;;;;;5048885;28;20479;-75
2024/03/26 02:11:31;;;;;;;81.38;49.22;;;154.40;2252.80;;;;;;5049803;28;20013;-74
2024/03/26 02:13:57;;;;;;;73.20;44.50;;;154.40;2252.80;;;;;;5049429;28;20036;-74
2024/03/26 02:16:23;;;;;;;56.78;33.42;;;154.40;2252.80;;;;;;5049239;28;20021;-75
2024/03/26 02:18:48;;;;;;;67.95;42.38;;;154.30;2252.80;;;;;;5049158;28;20052;-72
2024/03/26 02:21:14;;;;;;;75.70;45.78;;;154.30;2252.80;;;;;;5049165;28;20079;-72
2024/03/26 02:23:41;;;;;;;124.40;65.50;;;154.30;2252.80;;;;;;5049286;28;20021;-72
2024/03/26 02:26:16;;;;;;;81.82;46.00;;;154.30;2252.80;;;;;;5049534;28;20170;-73
2024/03/26 02:28:42;;;;;;;90.88;50.28;;;154.30;2252.80;;;;;;5048931;28;20013;-73
2024/03/26 02:31:08;;;;;;;79.05;44.97;;;154.30;2252.80;;;;;;5048717;28;20033;-72
2024/03/26 02:33:34;;;;;;;101.18;52.67;;;154.30;2252.80;;;;;;5048846;28;20032;-73
2024/03/26 02:36:00;;;;;;;106.93;55.22;;;154.20;2252.80;;;;;;5049073;28;20364;-72
2024/03/26 02:38:26;;;;;;;57.55;33.53;;;154.20;2252.80;;;;;;5048610;28;20048;-73
2024/03/26 02:40:53;;;;;;;80.55;47.30;;;154.20;2252.80;;;;;;5048431;28;20506;-73
2024/03/26 02:43:20;;;;;;;70.80;41.42;;;154.20;2252.80;;;;;;5048928;28;20033;-73
2024/03/26 02:45:45;;;;;;;69.10;42.45;;;154.20;2252.80;;;;;;5048639;28;20025;-72
2024/03/26 02:48:11;;;;;;;73.70;41.95;;;154.30;2252.80;;;;;;5048914;28;20040;-73
2024/03/26 02:50:37;;;;;;;69.13;40.00;;;154.30;2252.80;;;;;;5049075;28;20035;-73
2024/03/26 02:53:03;;;;;;;94.38;53.42;;;154.30;2252.80;;;;;;5049000;28;20025;-75
2024/03/26 02:55:29;;;;;;;79.10;49.13;;;154.30;2252.80;;;;;;5048835;28;20593;-75
2024/03/26 02:57:54;;;;;;;70.57;45.20;;;154.30;2252.80;;;;;;5048813;28;20029;-75
2024/03/26 03:00:20;;;;;;;67.03;41.47;;;154.30;2252.80;;;;;;5048790;28;20037;-73
2024/03/26 03:02:46;;;;;;;79.25;54.53;;;154.30;2252.80;;;;;;5048706;28;20036;-74
2024/03/26 03:05:12;;;;;;;68.80;42.08;;;154.20;2252.80;;;;;;5048794;28;20032;-73
2024/03/26 03:07:38;;;;;;;62.00;41.65;;;154.30;2252.80;;;;;;5048938;28;20017;-74
2024/03/26 03:10:04;;;;;;;66.30;42.30;;;154.30;2252.80;;;;;;5048755;28;20025;-74
2024/03/26 03:12:30;;;;;;;62.78;41.33;;;154.30;2252.80;;;;;;5048693;28;20070;-75
2024/03/26 03:14:55;;;;;;;67.85;40.42;;;154.30;2252.80;;;;;;5048646;28;20056;-74
2024/03/26 03:17:21;;;;;;;62.80;35.92;;;154.30;2252.80;;;;;;5048648;28;20059;-75
2024/03/26 03:19:47;;;;;;;52.50;30.83;;;154.20;2252.80;;;;;;5048709;28;20033;-75
2024/03/26 03:22:13;;;;;;;43.55;26.23;;;154.30;2252.80;;;;;;5048466;28;20036;-75
2024/03/26 03:24:39;;;;;;;56.00;35.53;;;154.30;2252.80;;;;;;5048480;28;20509;-75
2024/03/26 03:27:04;;;;;;;61.38;38.08;;;154.20;2252.80;;;;;;5048280;28;20109;-75
2024/03/26 03:29:30;;;;;;;65.28;39.35;;;154.20;2252.80;;;;;;5048773;28;20108;-75
2024/03/26 03:31:56;;;;;;;51.13;29.02;;;154.10;2252.80;;;;;;5048021;28;20029;-73
2024/03/26 03:34:22;;;;;;;44.20;25.67;;;154.10;2252.80;;;;;;5048380;28;20021;-73
2024/03/26 03:36:48;;;;;;;38.80;25.17;;;154.10;2252.80;;;;;;5048625;28;20032;-72
2024/03/26 03:39:13;;;;;;;38.03;25.05;;;154.10;2252.80;;;;;;5047918;28;20067;-73
2024/03/26 03:41:39;;;;;;;33.28;20.77;;;154.10;2252.80;;;;;;5048465;28;20045;-72
2024/03/26 03:44:05;;;;;;;32.60;21.15;;;154.10;2252.80;;;;;;5051026;28;20100;-72
2024/03/26 03:46:31;;;;;;;33.90;20.48;;;154.10;2252.80;;;;;;5051723;28;20649;-73
2024/03/26 03:48:57;;;;;;;81.85;47.28;;;154.10;2252.80;;;;;;5050254;28;20098;-72
2024/03/26 03:51:23;;;;;;;44.78;26.77;;;154.00;2252.80;;;;;;5051768;28;20025;-73
2024/03/26 03:53:48;;;;;;;37.53;24.15;;;154.00;2252.80;;;;;;5051914;28;20029;-75
2024/03/26 03:56:14;;;;;;;50.92;34.70;;;154.00;2252.80;;;;;;5051948;28;20025;-72
2024/03/26 03:58:40;;;;;;;50.40;29.35;;;154.00;2252.80;;;;;;5051886;28;20025;-72
2024/03/26 04:01:06;;;;;;;29.80;18.42;;;154.00;2252.80;;;;;;5051710;28;20184;-73
2024/03/26 04:03:32;;;;;;;33.97;20.00;;;153.90;2252.80;;;;;;5051673;28;20032;-73
2024/03/26 04:06:02;;;;;;;27.70;18.05;;;153.90;2252.80;;;;;;5051836;28;20033;-72
2024/03/26 04:08:28;;;;;;;45.67;34.80;;;153.80;2252.80;;;;;;5051906;28;20018;-72
2024/03/26 04:10:54;;;;;;;38.53;23.98;;;153.80;2252.80;;;;;;5051539;28;20021;-73
2024/03/26 04:13:20;;;;;;;38.75;25.52;;;153.80;2252.80;;;;;;5051803;28;20074;-73
2024/03/26 04:15:45;;;;;;;48.03;30.23;;;153.80;2252.80;;;;;;5051005;28;20086;-72
2024/03/26 04:18:11;;;;;;;47.40;30.35;;;153.80;2252.80;;;;;;5051870;28;20021;-72
2024/03/26 04:20:37;;;;;;;61.20;38.42;;;153.80;2252.80;;;;;;5051683;28;20506;-73
2024/03/26 04:23:03;;;;;;;78.22;45.75;;;153.80;2252.80;;;;;;5051380;28;20537;-73
2024/03/26 04:25:29;;;;;;;38.75;24.92;;;153.80;2252.80;;;;;;5051628;28;20040;-73
2024/03/26 04:27:55;;;;;;;58.08;30.17;;;153.80;2252.80;;;;;;5051445;28;20029;-72
2024/03/26 04:30:20;;;;;;;43.17;27.27;;;153.90;2252.80;;;;;;5051283;28;20399;-73
2024/03/26 04:32:46;;;;;;;41.83;22.13;;;153.80;2252.80;;;;;;5051093;28;20039;-73
2024/03/26 04:35:12;;;;;;;34.58;22.67;;;153.80;2252.80;;;;;;5050678;28;20442;-73
2024/03/26 04:37:38;;;;;;;46.05;25.13;;;153.80;2252.80;;;;;;5051454;28;20021;-73
2024/03/26 04:40:07;;;;;;;35.88;21.10;;;153.80;2252.80;;;;;;5050861;28;20045;-72
2024/03/26 04:42:33;;;;;;;41.13;24.73;;;153.80;2252.80;;;;;;5051161;28;20032;-73
2024/03/26 04:44:59;;;;;;;45.25;26.95;;;153.80;2252.80;;;;;;5051176;28;20029;-72
2024/03/26 04:47:25;;;;;;;57.75;31.75;;;153.90;2252.80;;;;;;5051031;28;20497;-73
2024/03/26 04:49:51;;;;;;;106.53;57.08;;;153.90;2252.80;;;;;;5050905;28;20033;-72
2024/03/26 04:52:17;;;;;;;63.15;35.25;;;153.90;2252.80;;;;;;5051298;28;20025;-73
2024/03/26 04:54:43;;;;;;;55.45;32.05;;;153.90;2252.80;;;;;;5050152;28;20037;-73
2024/03/26 04:57:08;;;;;;;58.38;37.00;;;153.90;2252.80;;;;;;5051052;28;20036;-73
2024/03/26 04:59:34;;;;;;;68.07;39.33;;;153.90;2252.80;;;;;;5050583;28;20025;-73
2024/03/26 05:02:00;;;;;;;54.17;34.55;;;153.90;2252.80;;;;;;5050763;28;20083;-72
2024/03/26 05:04:26;;;;;;;52.65;29.17;;;154.00;2252.80;;;;;;5048739;28;20052;-72
2024/03/26 05:06:52;;;;;;;48.55;30.23;;;154.00;2252.80;;;;;;5050583;28;20044;-74
2024/03/26 05:09:18;;;;;;;58.33;35.42;;;154.00;2252.80;;;;;;5050390;28;20033;-72
2024/03/26 05:11:44;;;;;;;65.68;40.67;;;154.20;2252.80;;;;;;5050369;28;20029;-73
2024/03/26 05:14:10;;;;;;;63.63;38.95;;;154.20;2252.80;;;;;;5050616;28;20096;-72
2024/03/26 05:16:36;;;;;;;70.07;41.58;;;154.30;2252.80;;;;;;5050450;28;20025;-73
2024/03/26 05:19:02;;;;;;;106.32;67.50;;;154.30;2252.80;;;;;;5050475;28;20037;-74
2024/03/26 05:21:28;;;;;;;65.97;40.55;;;154.40;2252.80;;;;;;5050683;28;20479;-73
2024/03/26 05:23:54;;;;;;;73.25;48.75;;;154.50;2252.80;;;;;;5050213;28;20028;-73
2024/03/26 05:26:19;;;;;;;96.03;56.53;;;154.50;2252.80;;;;;;5050515;28;20028;-73
2024/03/26 05:28:45;;;;;;;104.43;60.42;;;179.20;2252.80;;;;;;5050055;28;20059;-75
2024/03/26 05:31:19;;;;;;;79.22;47.28;;;179.40;2252.80;;;;;;5050178;28;20104;-75
2024/03/26 05:33:48;;;;;;;77.00;42.90;;;179.50;2252.80;;;;;;5050002;28;20020;-74
2024/03/26 05:36:15;;;;;;;68.40;40.08;;;179.60;2252.80;;;;;;5049993;28;20417;-74
2024/03/26 05:38:41;;;;;;;113.10;61.80;;;179.80;2252.80;;;;;;5049814;28;20032;-73
2024/03/26 05:41:08;;;;;;;82.05;49.80;;;179.80;2252.80;;;;;;5049958;28;20037;-75
2024/03/26 05:43:34;;;;;;;68.53;41.92;;;180.00;2252.80;;;;;;5049808;28;20517;-75
2024/03/26 05:46:00;;;;;;;62.42;38.88;;;180.10;2252.80;;;;;;5049975;28;20082;-72
2024/03/26 05:48:26;;;;;;;65.20;40.28;;;205.00;2252.80;;;;;;5049245;28;20025;-72
2024/03/26 05:50:53;;;;;;;68.28;45.40;;;205.30;2252.80;;;;;;5049788;28;20090;-73
2024/03/26 05:53:19;;;;;;;117.43;74.68;;;230.80;2252.80;;;;;;5049850;28;20021;-75
2024/03/26 05:55:45;;;;;;;118.32;78.13;;;230.90;2252.80;;;;;;5049588;28;20475;-72
2024/03/26 05:58:11;;;;;;;110.30;69.90;;;256.70;2252.80;;;;;;5048777;28;20044;-72
2024/03/26 06:00:37;;;;;;;107.60;70.30;;;281.70;2278.40;;;;;;5040742;28;20044;-73
2024/03/26 06:03:04;;;;;;;97.85;67.53;;;333.00;2252.80;;;;;;5049125;28;20047;-73
2024/03/26 06:05:29;;;;;;;96.18;63.53;;;358.40;2124.80;;;;;;5049150;28;20025;-73
2024/03/26 06:07:55;;;;;;;96.80;64.53;;;333.30;2124.80;;;;;;5049091;28;20062;-73
2024/03/26 06:10:22;;;;;;;102.85;70.30;;;333.70;2099.20;;;;;;5040872;28;20110;-74
2024/03/26 06:12:48;;;;;;;97.95;67.20;;;359.00;1996.80;;;;;;5049507;28;20025;-73
2024/03/26 06:15:14;;;;;;;98.90;71.05;;;384.90;1894.40;;;;;;5036698;28;20069;-73
2024/03/26 06:17:40;;;;;;;95.93;72.10;;;436.00;1766.40;;;;;;5049374;28;20060;-75
2024/03/26 06:20:09;;;;;;;96.55;74.95;;;486.70;1689.60;;;;;;5047328;28;20033;-72
2024/03/26 06:22:35;;;;;;;95.90;74.20;;;486.80;1612.80;;;;;;5049349;28;20092;-73
2024/03/26 06:25:00;;;;;;;89.55;70.55;;;537.60;1561.60;;;;;;5049151;28;20113;-74
2024/03/26 06:27:26;;;;;;;85.88;65.72;;;563.60;1459.20;;;;;;5049860;28;20012;-71
2024/03/26 06:29:53;;;;;;;47.30;34.40;;;589.10;1433.60;;;;;;5042088;28;20391;-72
2024/03/26 06:32:20;;;;;;;12.13;8.52;;;614.80;1280.00;;;;;;5045627;28;20017;-74
2024/03/26 06:34:46;;;;;;;14.70;12.07;;;615.00;1177.60;;;;;;5048598;28;20538;-71
2024/03/26 06:37:12;;;;;;;112.20;94.15;;;640.20;1152.00;;;;;;5048188;28;20053;-72
2024/03/26 06:39:37;;;;;;;58.72;47.60;;;640.90;1126.40;;;;;;5048170;28;20080;-70
2024/03/26 06:42:03;;;;;;;13.68;11.65;;;666.40;1100.80;;;;;;5047421;28;20505;-72
2024/03/26 06:44:29;;;;;;;10.18;8.70;;;691.60;1075.20;;;;;;5048130;28;20024;-74
2024/03/26 06:46:55;;;;;;;7.90;7.10;;;691.70;1049.60;;;;;;5046000;28;20036;-72
2024/03/26 06:49:22;;;;;;;5.60;4.38;;;692.10;1024.00;;;;;;5047276;28;20024;-73
2024/03/26 06:51:48;;;;;;;5.75;3.67;;;717.60;998.40;;;;;;5046340;28;20096;-71
2024/03/26 06:54:13;;;;;;;59.92;50.97;;;742.50;998.40;;;;;;5045973;28;20423;-71
2024/03/26 06:56:39;;;;;;;78.18;63.30;;;742.70;1075.20;;;;;;5035536;28;20109;-74
2024/03/26 06:59:05;;;;;;;73.18;54.63;;;691.90;1126.40;;;;;;5048759;28;20116;-76
2024/03/26 07:01:32;;;;;;;70.15;59.78;;;691.30;1152.00;;;;;;5045553;28;20537;-71
2024/03/26 07:03:58;;;;;;;84.35;68.53;;;666.50;1152.00;;;;;;5052737;28;20033;-71
2024/03/26 07:06:24;;;;;;;72.53;59.20;;;666.50;1152.00;;;;;;5052681;28;20339;-73
2024/03/26 07:08:49;;;;;;;86.60;69.97;;;666.00;1177.60;;;;;;5052230;28;20025;-73
2024/03/26 07:11:15;;;;;;;107.95;85.95;;;640.10;1203.20;;;;;;5052426;28;20029;-73
2024/03/26 07:13:41;;;;;;;98.95;77.20;;;615.20;1228.80;;;;;;5052625;28;20025;-70
2024/03/26 07:16:07;;;;;;;112.60;92.60;;;615.30;1228.80;;;;;;5052340;28;20017;-70
2024/03/26 07:18:33;;;;;;;107.57;87.57;;;665.80;1203.20;;;;;;5055988;28;20036;-73
2024/03/26 07:20:59;;;;;;;91.20;69.10;;;691.30;1152.00;;;;;;5056236;28;20060;-74
2024/03/26 07:23:28;;;;;;;77.97;65.82;;;691.60;1126.40;;;;;;5056282;28;20021;-75
2024/03/26 07:25:53;;;;;;;110.35;79.93;;;691.90;1049.60;;;;;;5056313;28;20029;-73
2024/03/26 07:28:20;;;;;;;58.45;48.88;;;691.90;1100.80;;;;;;5056416;28;20118;-75
2024/03/26 07:30:46;;;;;;;59.13;47.05;;;691.90;1100.80;;;;;;5056078;28;20033;-70
2024/03/26 07:33:30;;;;;;;61.17;50.40;;;666.10;1152.00;;;;;;5056009;28;20057;-70
2024/03/26 07:35:56;;;;;;;62.38;49.97;;;665.60;1177.60;;;;;;5052814;28;20108;-73
2024/03/26 07:38:21;;;;;;;56.92;46.63;;;666.30;1152.00;;;;;;5052204;28;20115;-74
2024/03/26 07:40:47;;;;;;;56.08;41.13;;;691.20;1100.80;;;;;;5052342;28;20059;-73
2024/03/26 07:43:13;;;;;;;55.35;46.03;;;691.30;1100.80;;;;;;5051762;28;20021;-70
2024/03/26 07:45:39;;;;;;;66.90;48.35;;;691.50;1126.40;;;;;;5052832;28;20025;-72
2024/03/26 07:48:05;;;;;;;57.22;46.65;;;691.80;1126.40;;;;;;5051818;28;20475;-74
2024/03/26 07:50:31;;;;;;;48.00;40.33;;;717.40;1100.80;;;;;;5052545;28;20064;-76
2024/03/26 07:52:57;;;;;;;37.80;30.45;;;742.40;1075.20;;;;;;5052731;28;20025;-76
2024/03/26 07:55:22;;;;;;;40.97;31.40;;;717.20;1049.60;;;;;;5052079;28;20078;-72
2024/03/26 07:57:48;;;;;;;47.22;37.05;;;742.50;1075.20;;;;;;5052258;28;20021;-71
2024/03/26 08:00:14;;;;;;;36.13;29.10;;;743.00;1049.60;;;;;;5052018;28;20040;-72
2024/03/26 08:02:43;;;;;;;46.70;38.45;;;768.10;1024.00;;;;;;5051714;28;20475;-71
2024/03/26 08:05:09;;;;;;;49.25;40.35;;;793.90;1049.60;;;;;;5047520;28;20018;-73
2024/03/26 08:07:34;;;;;;;34.63;28.77;;;819.40;998.40;;;;;;5038680;28;20053;-74
2024/03/26 08:10:00;;;;;;;43.78;35.38;;;794.20;1024.00;;;;;;5038112;28;20093;-70
2024/03/26 08:12:27;;;;;;;30.98;21.17;;;794.50;1024.00;;;;;;5041989;28;20036;-72
2024/03/26 08:14:53;;;;;;;29.20;24.02;;;793.60;1024.00;;;;;;5042177;28;20104;-74
2024/03/26 08:17:19;;;;;;;25.83;21.13;;;768.90;998.40;;;;;;5034265;28;20029;-73
2024/03/26 08:19:45;;;;;;;21.67;19.17;;;793.60;998.40;;;;;;5034624;28;20379;-71
2024/03/26 08:22:11;;;;;;;17.30;14.98;;;794.40;972.80;;;;;;5041571;28;20028;-74
2024/03/26 08:24:37;;;;;;;18.33;14.80;;;820.00;921.60;;;;;;5036356;28;20096;-72
2024/03/26 08:27:02;;;;;;;15.15;13.02;;;819.60;921.60;;;;;;5043706;28;20122;-70
2024/03/26 08:29:28;;;;;;;14.88;12.10;;;819.30;921.60;;;;;;5042212;28;20067;-72
2024/03/26 08:31:54;;;;;;;20.88;15.57;;;794.00;947.20;;;;;;5038905;28;20394;-70
2024/03/26 08:34:20;;;;;;;21.27;17.48;;;768.70;947.20;;;;;;5046751;28;20021;-72
2024/03/26 08:36:49;;;;;;;31.02;23.85;;;794.00;972.80;;;;;;5047581;28;20111;-70
2024/03/26 08:39:15;;;;;;;18.80;15.68;;;794.20;972.80;;;;;;5036317;28;20041;-70
2024/03/26 08:41:41;;;;;;;23.58;20.98;;;793.80;972.80;;;;;;5041695;28;20076;-71
2024/03/26 08:44:07;;;;;;;13.43;10.95;;;768.50;972.80;;;;;;5036717;28;20052;-72
2024/03/26 08:46:33;;;;;;;15.00;12.20;;;793.70;972.80;;;;;;5042946;28;20038;-72
2024/03/26 08:48:59;;;;;;;37.70;27.45;;;768.40;972.80;;;;;;5039387;28;20027;-73
2024/03/26 08:51:28;;;;;;;27.40;21.92;;;768.20;972.80;;;;;;5041811;28;20032;-72
2024/03/26 08:53:54;;;;;;;42.28;33.17;;;743.10;998.40;;;;;;5052050;28;20094;-75
2024/03/26 08:56:20;;;;;;;115.45;81.20;;;717.40;1024.00;;;;;;5033057;28;20029;-70
2024/03/26 08:58:48;;;;;;;67.57;52.50;;;691.80;972.80;;;;;;5040109;28;20017;-72
2024/03/26 09:01:14;;;;;;;27.88;24.70;;;691.40;998.40;;;;;;5040788;28;20346;-71
2024/03/26 09:03:40;;;;;;;11.77;9.00;;;666.00;972.80;;;;;;5044671;28;20013;-70
2024/03/26 09:06:06;;;;;;;21.27;15.18;;;640.50;998.40;;;;;;5046039;28;20024;-71
2024/03/26 09:08:33;;;;;;;18.30;15.82;;;640.00;972.80;;;;;;5041405;28;20030;-71
2024/03/26 09:11:00;;;;;;;29.80;25.15;;;615.00;972.80;;;;;;5034272;28;20394;-69
2024/03/26 09:13:26;;;;;;;19.15;17.15;;;614.80;1024.00;;;;;;5035441;28;20068;-70
2024/03/26 09:15:52;;;;;;;15.98;13.77;;;614.50;1024.00;;;;;;5041633;28;20063;-69
2024/03/26 09:18:18;;;;;;;13.52;10.10;;;614.40;1024.00;;;;;;5033799;28;20033;-69
2024/03/26 09:20:43;;;;;;;10.02;7.97;;;589.50;1024.00;;;;;;5034118;28;20034;-69
2024/03/26 09:23:09;;;;;;;7.65;6.20;;;589.40;1049.60;;;;;;5041451;28;20029;-70
2024/03/26 09:25:35;;;;;;;9.50;7.63;;;589.30;1049.60;;;;;;5040249;28;20120;-72
2024/03/26 09:28:01;;;;;;;9.63;7.40;;;589.20;1024.00;;;;;;5035982;28;20501;-70
2024/03/26 09:30:27;;;;;;;9.13;6.40;;;589.10;1075.20;;;;;;5041182;28;20025;-69
2024/03/26 09:32:56;;;;;;;8.80;6.20;;;588.90;1100.80;;;;;;5035401;28;20494;-74
2024/03/26 09:35:22;;;;;;;6.00;3.88;;;588.80;1049.60;;;;;;5034817;28;20043;-70
2024/03/26 09:37:48;;;;;;;8.10;4.68;;;589.10;1075.20;;;;;;5042932;28;20099;-72
2024/03/26 09:40:15;;;;;;;15.85;12.43;;;588.90;1075.20;;;;;;5060663;28;20106;-70
2024/03/26 09:42:41;;;;;;;17.30;8.90;;;588.80;1049.60;;;;;;5053668;28;20029;-69
2024/03/26 09:45:13;;;;;;;13.95;9.30;;;564.10;998.40;;;;;;5053491;28;20031;-70
2024/03/26 09:51:01;;;;;;;8.93;7.43;;;563.70;1075.20;;;;;;5053708;28;20036;-73
2024/03/26 09:53:27;;;;;;;12.38;6.40;;;563.80;1075.20;;;;;;5053391;28;20481;-71
2024/03/26 09:55:53;;;;;;;22.85;18.85;;;563.70;1126.40;;;;;;5053566;28;20027;-71
2024/03/26 09:58:19;;;;;;;8.63;6.75;;;563.60;1075.20;;;;;;5053618;28;20103;-70
2024/03/26 10:00:50;;;;;;;16.15;13.95;;;538.50;1024.00;;;;;;5051552;28;20538;-72
2024/03/26 10:03:20;;;;;;;24.02;18.83;;;563.20;1100.80;;;;;;5049526;28;20017;-71
2024/03/26 10:05:47;;;;;;;14.18;9.40;;;538.50;1075.20;;;;;;5049855;28;20095;-71
2024/03/26 10:08:13;;;;;;;15.90;10.32;;;538.50;1075.20;;;;;;5049393;28;20597;-70
2024/03/26 10:10:43;;;;;;;13.88;10.68;;;538.50;1049.60;;;;;;5049487;28;20111;-72
2024/03/26 10:13:10;;;;;;;22.88;16.48;;;538.50;1126.40;;;;;;5049753;28;20021;-72
2024/03/26 10:15:40;;;;;;;12.55;9.65;;;538.10;1049.60;;;;;;5049576;28;20033;-71
2024/03/26 10:18:06;;;;;;;21.52;16.95;;;537.90;1075.20;;;;;;5049098;28;20021;-72
2024/03/26 10:20:32;;;;;;;17.83;12.27;;;538.00;1100.80;;;;;;5049371;28;20052;-72
2024/03/26 10:22:59;;;;;;;23.80;19.70;;;538.00;1075.20;;;;;;5049346;28;20489;-71
2024/03/26 10:25:26;;;;;;;25.02;20.20;;;538.20;1100.80;;;;;;5049339;28;20107;-70
2024/03/26 10:27:52;;;;;;;17.48;9.57;;;538.20;1100.80;;;;;;5042477;28;20187;-71
2024/03/26 10:30:18;;;;;;;10.93;5.43;;;538.30;1075.20;;;;;;5042408;28;20470;-71
2024/03/26 10:32:46;;;;;;;37.45;21.92;;;538.30;1075.20;;;;;;5049033;28;20053;-71
2024/03/26 10:35:13;;;;;;;14.18;10.68;;;538.10;1075.20;;;;;;5048911;28;20044;-72
2024/03/26 10:37:39;;;;;;;14.23;10.07;;;538.20;1075.20;;;;;;5049290;28;20325;-71
2024/03/26 10:40:47;;;;;;;14.18;10.90;;;538.10;1100.80;;;;;;5048616;28;20098;-71
2024/03/26 10:43:13;;;;;;;13.50;9.77;;;538.10;1126.40;;;;;;5026544;28;20030;-71
2024/03/26 10:45:39;;;;;;;14.25;9.90;;;538.10;1126.40;;;;;;5027001;28;20033;-70
2024/03/26 10:48:06;;;;;;;12.50;9.52;;;538.00;1100.80;;;;;;5026670;28;20032;-71
2024/03/26 10:50:33;;;;;;;8.45;4.50;;;537.80;1152.00;;;;;;5026852;28;20387;-71
2024/03/26 10:53:00;;;;;;;7.32;5.38;;;512.90;1075.20;;;;;;5026764;28;20036;-69
2024/03/26 10:55:27;;;;;;;15.30;8.73;;;537.80;1152.00;;;;;;5026576;28;20048;-71
2024/03/26 10:57:53;;;;;;;12.25;7.85;;;537.80;1126.40;;;;;;5026445;28;20041;-70
2024/03/26 11:00:19;;;;;;;11.23;3.90;;;537.80;1152.00;;;;;;5026640;28;20120;-73
2024/03/26 11:02:51;;;;;;;11.75;6.90;;;538.00;1152.00;;;;;;5025812;28;20065;-71
2024/03/26 11:05:17;;;;;;;5.20;2.35;;;537.90;1100.80;;;;;;5026658;28;20475;-72
2024/03/26 11:07:45;;;;;;;7.82;4.30;;;537.80;1075.20;;;;;;5026296;28;20060;-72
2024/03/26 11:10:13;;;;;;;14.43;7.22;;;537.80;1100.80;;;;;;5026782;28;20037;-70
2024/03/26 11:12:40;;;;;;;7.32;4.97;;;538.00;1100.80;;;;;;5026483;28;20056;-70
2024/03/26 11:15:15;;;;;;;8.75;4.15;;;537.90;1126.40;;;;;;5026647;28;20033;-71
2024/03/26 11:18:07;;;;;;;9.70;6.90;;;512.90;1075.20;;;;;;5032016;28;20065;-70
2024/03/26 11:20:33;;;;;;;9.13;5.30;;;537.60;1126.40;;;;;;5039938;28;20125;-71
2024/03/26 11:23:06;;;;;;;7.60;4.10;;;537.60;1152.00;;;;;;5049006;28;20494;-71
2024/03/26 11:25:33;;;;;;;9.60;6.43;;;537.60;1126.40;;;;;;5048635;28;20374;-71
2024/03/26 11:28:01;;;;;;;18.05;11.45;;;512.90;1126.40;;;;;;5042736;28;20471;-71
2024/03/26 11:30:35;;;;;;;22.85;13.63;;;512.90;1126.40;;;;;;5041571;28;20021;-71
2024/03/26 11:33:01;;;;;;;10.90;6.57;;;537.60;1126.40;;;;;;5038531;28;20071;-71
2024/03/26 11:35:29;;;;;;;11.68;7.93;;;512.90;1177.60;;;;;;5048054;28;20051;-70
2024/03/26 11:38:02;;;;;;;8.48;5.32;;;512.60;1177.60;;;;;;5047652;28;20502;-70
2024/03/26 11:40:29;;;;;;;14.07;8.68;;;512.50;1152.00;;;;;;5047545;28;20049;-70
2024/03/26 11:42:55;;;;;;;24.02;15.82;;;512.60;1152.00;;;;;;5047837;28;20382;-71
2024/03/26 11:45:21;;;;;;;7.05;4.97;;;512.60;1152.00;;;;;;5048102;28;20025;-71
2024/03/26 11:47:47;;;;;;;12.20;7.72;;;512.50;1126.40;;;;;;5048192;28;20032;-71
2024/03/26 11:50:13;;;;;;;19.58;11.63;;;512.90;1177.60;;;;;;5047404;28;20017;-70
2024/03/26 11:52:39;;;;;;;9.85;5.88;;;512.90;1152.00;;;;;;5048273;28;20351;-71
2024/03/26 11:55:06;;;;;;;12.40;7.45;;;537.60;1177.60;;;;;;5047831;28;20455;-71
2024/03/26 11:57:35;;;;;;;11.93;7.97;;;537.70;1203.20;;;;;;5047814;28;20037;-71
2024/03/26 12:00:01;;;;;;;13.55;7.07;;;537.60;1228.80;;;;;;5047581;28;20025;-73
2024/03/26 12:02:27;;;;;;;12.35;9.88;;;512.90;1203.20;;;;;;5047900;28;20073;-71